createdAt,value
2023-04-01T00:02:21.403Z,97800.16
2023-04-01T00:04:51.057Z,97792.22
2023-04-01T00:07:17.630Z,97801.97
2023-04-01T00:09:45.535Z,97794.03
2023-04-01T00:12:13.559Z,97796.69
2023-04-01T09:27:55.522Z,97856.88
2023-04-01T09:30:37.715Z,97854.31
2023-04-01T09:33:22.609Z,97857.72
2023-04-01T09:36:06.073Z,97861.94
2023-04-01T09:38:54.871Z,97866.13
2023-04-01T09:41:33.063Z,97859.75
2023-04-01T09:43:59.793Z,97869.38
2023-04-01T09:47:07.738Z,97872.78
2023-04-01T09:50:16.454Z,97867.34
2023-04-01T09:52:50.132Z,97874.34
2023-04-01T09:55:52.242Z,97874.09
2023-04-01T09:58:49.128Z,97866.84
2023-04-01T10:01:19.601Z,97876.25
2023-04-01T10:04:18.978Z,97871.53
2023-04-01T10:07:11.644Z,97877.44
2023-04-01T10:09:51.014Z,97879.16
2023-04-01T10:12:26.629Z,97877.34
2023-04-01T10:15:31.363Z,97879.53
2023-04-01T10:18:39.772Z,97882.03
2023-04-01T10:21:23.109Z,97884.44
2023-04-01T10:24:06.026Z,97881.56
2023-04-01T10:27:12.287Z,97882.97
2023-04-01T10:30:06.256Z,97883.72
2023-04-01T10:32:48.016Z,97889.72
2023-04-01T10:35:23.680Z,97894.06
2023-04-01T10:38:08.448Z,97884.19
2023-04-01T10:40:59.061Z,97888.50
2023-04-01T10:43:42.006Z,97884.03
2023-04-01T10:46:35.593Z,97892.13
2023-04-01T10:49:04.772Z,97889.34
2023-04-01T10:52:00.634Z,97893.81
2023-04-01T10:55:01.386Z,97889.34
2023-04-01T10:58:04.877Z,97889.09
2023-04-01T11:00:49.427Z,97888.16
2023-04-01T11:03:24.873Z,97886.22
2023-04-01T11:06:25.532Z,97891.13
2023-04-01T11:08:51.915Z,97887.63
2023-04-01T11:11:43.439Z,97885.81
2023-04-01T11:14:16.353Z,97894.75
2023-04-01T11:17:07.302Z,97893.69
2023-04-01T11:19:43.152Z,97895.94
2023-04-01T11:22:31.042Z,97898.59
2023-04-01T11:25:15.398Z,97897.53
2023-04-01T11:28:15.685Z,97899.66
2023-04-01T11:31:12.938Z,97904.59
2023-04-01T11:34:06.050Z,97898.06
2023-04-01T11:36:45.853Z,97896.13
2023-04-01T11:39:24.703Z,97897.09
2023-04-01T11:42:09.968Z,97901.44
2023-04-01T11:44:44.419Z,97899.50
2023-04-01T11:47:49.733Z,97902.84
2023-04-01T11:50:40.520Z,97907.34
2023-04-01T11:53:20.396Z,97901.31
2023-04-01T11:56:11.442Z,97906.34
2023-04-01T11:58:53.606Z,97901.19
2023-04-01T12:01:43.717Z,97903.84
2023-04-01T12:04:32.517Z,97910.84
2023-04-01T12:07:05.017Z,97905.53
2023-04-01T12:09:45.891Z,97916.28
2023-04-01T12:13:00.860Z,97916.50
